sensor_id;sensor_type;location;lat;lon;timestamp;pressure;altitude;pressure_sealevel;temperature;humidity
78407;BME280;67692;51.074;-1.790;2023-02-28T00:00:24;102726.53;;;3.57;71.21
78407;BME280;67692;51.074;-1.790;2023-02-28T00:02:51;102724.81;;;3.59;71.02
78407;BME280;67692;51.074;-1.790;2023-02-28T00:05:18;102721.34;;;3.66;70.51
78407;BME280;67692;51.074;-1.790;2023-02-28T00:07:46;102726.50;;;3.60;70.14
78407;BME280;67692;51.074;-1.790;2023-02-28T00:10:15;102730.91;;;3.43;71.08
78407;BME280;67692;51.074;-1.790;2023-02-28T00:12:44;102733.53;;;3.34;71.06
78407;BME280;67692;51.074;-1.790;2023-02-28T00:15:12;102728.53;;;3.12;71.88
78407;BME280;67692;51.074;-1.790;2023-02-28T00:17:39;102726.81;;;3.14;71.78
78407;BME280;67692;51.074;-1.790;2023-02-28T00:20:06;102736.16;;;3.17;71.63
78407;BME280;67692;51.074;-1.790;2023-02-28T00:22:35;102733.63;;;3.12;71.57
78407;BME280;67692;51.074;-1.790;2023-02-28T00:25:03;102732.75;;;3.22;71.31
78407;BME280;67692;51.074;-1.790;2023-02-28T00:27:30;102733.53;;;3.34;71.02
78407;BME280;67692;51.074;-1.790;2023-02-28T00:29:57;102738.69;;;3.24;70.36
78407;BME280;67692;51.074;-1.790;2023-02-28T00:32:25;102736.19;;;3.14;70.40
78407;BME280;67692;51.074;-1.790;2023-02-28T00:34:51;102738.81;;;3.06;69.81
78407;BME280;67692;51.074;-1.790;2023-02-28T00:37:18;102735.41;;;2.98;70.02
78407;BME280;67692;51.074;-1.790;2023-02-28T00:39:45;102728.63;;;2.94;69.97
78407;BME280;67692;51.074;-1.790;2023-02-28T00:42:11;102737.16;;;2.87;69.46
78407;BME280;67692;51.074;-1.790;2023-02-28T00:44:38;102733.81;;;2.71;70.12
78407;BME280;67692;51.074;-1.790;2023-02-28T00:47:04;102738.09;;;2.75;70.36
78407;BME280;67692;51.074;-1.790;2023-02-28T00:49:32;102740.63;;;2.75;70.81
78407;BME280;67692;51.074;-1.790;2023-02-28T00:51:59;102739.75;;;2.81;70.16
78407;BME280;67692;51.074;-1.790;2023-02-28T00:54:26;102745.75;;;2.78;70.21
78407;BME280;67692;51.074;-1.790;2023-02-28T00:56:52;102738.91;;;2.82;70.17
78407;BME280;67692;51.074;-1.790;2023-02-28T00:59:19;102736.34;;;2.82;70.05
78407;BME280;67692;51.074;-1.790;2023-02-28T01:01:46;102745.75;;;2.77;69.93
78407;BME280;67692;51.074;-1.790;2023-02-28T01:04:14;102744.91;;;2.67;70.04
78407;BME280;67692;51.074;-1.790;2023-02-28T01:06:42;102744.94;;;2.64;69.65
78407;BME280;67692;51.074;-1.790;2023-02-28T01:09:08;102738.97;;;2.63;70.09
78407;BME280;67692;51.074;-1.790;2023-02-28T01:11:35;102754.31;;;2.53;70.16
78407;BME280;67692;51.074;-1.790;2023-02-28T01:14:03;102750.91;;;2.45;70.12
78407;BME280;67692;51.074;-1.790;2023-02-28T01:16:30;102757.78;;;2.35;70.11
78407;BME280;67692;51.074;-1.790;2023-02-28T01:18:57;102753.50;;;2.35;71.03
78407;BME280;67692;51.074;-1.790;2023-02-28T01:21:23;102753.50;;;2.38;70.37
78407;BME280;67692;51.074;-1.790;2023-02-28T01:23:51;102754.38;;;2.33;70.59
78407;BME280;67692;51.074;-1.790;2023-02-28T01:26:20;102750.94;;;2.37;71.00
78407;BME280;67692;51.074;-1.790;2023-02-28T01:28:47;102749.25;;;2.36;70.80
78407;BME280;67692;51.074;-1.790;2023-02-28T01:31:14;102749.25;;;2.34;70.57
78407;BME280;67692;51.074;-1.790;2023-02-28T01:33:41;102758.63;;;2.32;70.97
78407;BME280;67692;51.074;-1.790;2023-02-28T01:36:10;102766.28;;;2.26;70.99
78407;BME280;67692;51.074;-1.790;2023-02-28T01:38:38;102749.25;;;2.28;70.97
78407;BME280;67692;51.074;-1.790;2023-02-28T01:41:06;102750.09;;;2.27;71.57
78407;BME280;67692;51.074;-1.790;2023-02-28T01:43:52;102761.19;;;2.22;71.23
78407;BME280;67692;51.074;-1.790;2023-02-28T01:46:19;102752.66;;;2.24;71.79
78407;BME280;67692;51.074;-1.790;2023-02-28T01:48:49;102755.25;;;2.20;71.74
78407;BME280;67692;51.074;-1.790;2023-02-28T01:51:21;102749.25;;;2.36;71.43
78407;BME280;67692;51.074;-1.790;2023-02-28T01:53:51;102753.50;;;2.26;72.30
78407;BME280;67692;51.074;-1.790;2023-02-28T01:56:22;102751.81;;;2.24;72.92
78407;BME280;67692;51.074;-1.790;2023-02-28T01:58:50;102754.38;;;2.21;72.93
78407;BME280;67692;51.074;-1.790;2023-02-28T02:01:18;102753.53;;;2.17;73.10
78407;BME280;67692;51.074;-1.790;2023-02-28T02:03:47;102754.41;;;2.05;73.72
78407;BME280;67692;51.074;-1.790;2023-02-28T02:06:17;102752.69;;;2.21;73.42
78407;BME280;67692;51.074;-1.790;2023-02-28T02:08:44;102745.00;;;2.17;73.38
78407;BME280;67692;51.074;-1.790;2023-02-28T02:11:12;102741.63;;;2.04;74.08
78407;BME280;67692;51.074;-1.790;2023-02-28T02:14:06;102745.88;;;2.06;74.16
78407;BME280;67692;51.074;-1.790;2023-02-28T02:16:44;102745.00;;;2.17;73.99
78407;BME280;67692;51.074;-1.790;2023-02-28T02:22:27;102743.31;;;2.20;73.73
78407;BME280;67692;51.074;-1.790;2023-02-28T02:25:10;102742.47;;;2.18;73.79
78407;BME280;67692;51.074;-1.790;2023-02-28T02:27:51;102734.81;;;2.03;74.36
78407;BME280;67692;51.074;-1.790;2023-02-28T02:33:40;102738.22;;;1.93;74.58
78407;BME280;67692;51.074;-1.790;2023-02-28T02:36:19;102725.44;;;1.88;74.77
78407;BME280;67692;51.074;-1.790;2023-02-28T02:38:50;102731.41;;;1.93;75.00
78407;BME280;67692;51.074;-1.790;2023-02-28T02:41:21;102733.09;;;1.85;75.18
78407;BME280;67692;51.074;-1.790;2023-02-28T02:43:53;102736.50;;;1.87;75.29
78407;BME280;67692;51.074;-1.790;2023-02-28T02:46:27;102732.22;;;1.72;75.94
78407;BME280;67692;51.074;-1.790;2023-02-28T02:48:57;102727.13;;;1.85;75.70
78407;BME280;67692;51.074;-1.790;2023-02-28T02:51:28;102731.38;;;1.86;75.74
78407;BME280;67692;51.074;-1.790;2023-02-28T02:53:58;102741.63;;;1.93;75.38
78407;BME280;67692;51.074;-1.790;2023-02-28T02:56:28;102739.03;;;2.02;74.90
78407;BME280;67692;51.074;-1.790;2023-02-28T02:58:59;102733.94;;;2.07;74.77
78407;BME280;67692;51.074;-1.790;2023-02-28T03:01:28;102737.34;;;2.23;74.53
78407;BME280;67692;51.074;-1.790;2023-02-28T03:03:59;102733.09;;;2.20;74.48
78407;BME280;67692;51.074;-1.790;2023-02-28T03:06:28;102727.13;;;2.20;74.44
78407;BME280;67692;51.074;-1.790;2023-02-28T03:08:55;102727.13;;;2.09;74.84
78407;BME280;67692;51.074;-1.790;2023-02-28T03:11:21;102731.41;;;2.18;74.61
78407;BME280;67692;51.074;-1.790;2023-02-28T03:13:58;102734.78;;;2.15;74.76
78407;BME280;67692;51.074;-1.790;2023-02-28T03:16:33;102740.75;;;1.97;75.32
78407;BME280;67692;51.074;-1.790;2023-02-28T03:19:17;102737.34;;;2.00;75.61
78407;BME280;67692;51.074;-1.790;2023-02-28T03:21:55;102739.91;;;1.92;75.92
78407;BME280;67692;51.074;-1.790;2023-02-28T03:24:27;102739.06;;;1.93;76.15
78407;BME280;67692;51.074;-1.790;2023-02-28T03:27:04;102733.09;;;2.00;76.02
78407;BME280;67692;51.074;-1.790;2023-02-28T03:29:35;102735.66;;;1.90;76.41
78407;BME280;67692;51.074;-1.790;2023-02-28T03:32:08;102750.13;;;2.11;75.93
78407;BME280;67692;51.074;-1.790;2023-02-28T03:34:41;102740.75;;;2.13;75.71
78407;BME280;67692;51.074;-1.790;2023-02-28T03:37:15;102736.47;;;2.16;75.18
78407;BME280;67692;51.074;-1.790;2023-02-28T03:39:46;102740.75;;;2.19;75.13
78407;BME280;67692;51.074;-1.790;2023-02-28T03:42:15;102735.63;;;2.22;74.51
78407;BME280;67692;51.074;-1.790;2023-02-28T03:44:46;102739.06;;;2.21;74.70
78407;BME280;67692;51.074;-1.790;2023-02-28T03:47:16;102754.38;;;2.08;75.10
78407;BME280;67692;51.074;-1.790;2023-02-28T03:49:44;102742.47;;;2.07;76.05
78407;BME280;67692;51.074;-1.790;2023-02-28T03:52:14;102745.00;;;2.00;76.75
78407;BME280;67692;51.074;-1.790;2023-02-28T03:54:44;102747.59;;;1.94;77.52
78407;BME280;67692;51.074;-1.790;2023-02-28T03:57:12;102747.59;;;1.89;77.63
78407;BME280;67692;51.074;-1.790;2023-02-28T03:59:44;102751.00;;;1.91;77.61
78407;BME280;67692;51.074;-1.790;2023-02-28T04:02:13;102740.75;;;1.87;77.88
78407;BME280;67692;51.074;-1.790;2023-02-28T04:04:39;102742.47;;;1.83;77.75
78407;BME280;67692;51.074;-1.790;2023-02-28T04:07:15;102735.66;;;1.85;77.44
78407;BME280;67692;51.074;-1.790;2023-02-28T04:09:41;102723.72;;;1.96;77.31
78407;BME280;67692;51.074;-1.790;2023-02-28T04:12:09;102716.91;;;2.06;76.56
78407;BME280;67692;51.074;-1.790;2023-02-28T04:14:36;102734.81;;;1.95;76.93
78407;BME280;67692;51.074;-1.790;2023-02-28T04:17:02;102731.38;;;2.01;76.48
78407;BME280;67692;51.074;-1.790;2023-02-28T04:19:29;102721.19;;;1.92;76.99
78407;BME280;67692;51.074;-1.790;2023-02-28T04:21:55;102731.41;;;1.92;77.42
78407;BME280;67692;51.074;-1.790;2023-02-28T04:24:25;102725.44;;;1.97;77.12
78407;BME280;67692;51.074;-1.790;2023-02-28T04:26:54;102728.84;;;1.99;76.89
78407;BME280;67692;51.074;-1.790;2023-02-28T04:29:22;102733.09;;;2.08;76.52
78407;BME280;67692;51.074;-1.790;2023-02-28T04:31:49;102733.09;;;1.99;77.20
78407;BME280;67692;51.074;-1.790;2023-02-28T04:34:18;102744.16;;;2.01;76.99
78407;BME280;67692;51.074;-1.790;2023-02-28T04:36:46;102731.38;;;2.02;77.09
78407;BME280;67692;51.074;-1.790;2023-02-28T04:39:14;102730.56;;;1.94;77.42
78407;BME280;67692;51.074;-1.790;2023-02-28T04:41:42;102739.06;;;1.96;77.57
78407;BME280;67692;51.074;-1.790;2023-02-28T04:44:08;102747.56;;;1.97;77.55
78407;BME280;67692;51.074;-1.790;2023-02-28T04:46:35;102742.47;;;1.98;77.53
78407;BME280;67692;51.074;-1.790;2023-02-28T04:49:02;102747.56;;;1.78;78.29
78407;BME280;67692;51.074;-1.790;2023-02-28T04:51:32;102749.28;;;1.81;78.12
78407;BME280;67692;51.074;-1.790;2023-02-28T04:53:58;102746.72;;;1.87;78.18
78407;BME280;67692;51.074;-1.790;2023-02-28T04:56:25;102750.13;;;1.97;77.94
78407;BME280;67692;51.074;-1.790;2023-02-28T04:58:52;102759.50;;;1.99;77.95
78407;BME280;67692;51.074;-1.790;2023-02-28T05:01:23;102757.78;;;2.11;77.47
78407;BME280;67692;51.074;-1.790;2023-02-28T05:03:51;102756.09;;;2.09;77.74
78407;BME280;67692;51.074;-1.790;2023-02-28T05:06:18;102750.97;;;2.09;77.61
78407;BME280;67692;51.074;-1.790;2023-02-28T05:08:45;102748.41;;;2.11;77.83
78407;BME280;67692;51.074;-1.790;2023-02-28T05:11:15;102760.38;;;2.03;77.75
78407;BME280;67692;51.074;-1.790;2023-02-28T05:13:42;102768.88;;;2.11;77.45
78407;BME280;67692;51.074;-1.790;2023-02-28T05:16:10;102772.25;;;2.15;76.97
78407;BME280;67692;51.074;-1.790;2023-02-28T05:18:37;102770.56;;;2.14;75.72
78407;BME280;67692;51.074;-1.790;2023-02-28T05:21:05;102778.22;;;2.14;75.53
78407;BME280;67692;51.074;-1.790;2023-02-28T05:23:32;102773.13;;;2.14;75.70
78407;BME280;67692;51.074;-1.790;2023-02-28T05:25:58;102773.09;;;2.15;75.76
78407;BME280;67692;51.074;-1.790;2023-02-28T05:28:25;102773.13;;;2.11;76.40
78407;BME280;67692;51.074;-1.790;2023-02-28T05:30:51;102777.38;;;2.05;76.83
78407;BME280;67692;51.074;-1.790;2023-02-28T05:33:19;102772.25;;;1.99;77.24
78407;BME280;67692;51.074;-1.790;2023-02-28T05:35:46;102787.59;;;1.98;77.21
78407;BME280;67692;51.074;-1.790;2023-02-28T05:38:12;102790.16;;;1.99;77.41
78407;BME280;67692;51.074;-1.790;2023-02-28T05:40:39;102793.56;;;2.04;77.18
78407;BME280;67692;51.074;-1.790;2023-02-28T05:43:09;102794.41;;;2.08;77.10
78407;BME280;67692;51.074;-1.790;2023-02-28T05:45:36;102797.81;;;2.12;76.59
78407;BME280;67692;51.074;-1.790;2023-02-28T05:48:03;102792.72;;;2.13;76.71
78407;BME280;67692;51.074;-1.790;2023-02-28T05:50:31;102796.13;;;2.11;76.86
78407;BME280;67692;51.074;-1.790;2023-02-28T05:52:57;102791.00;;;2.07;76.76
78407;BME280;67692;51.074;-1.790;2023-02-28T05:55:24;102786.75;;;2.05;76.45
78407;BME280;67692;51.074;-1.790;2023-02-28T05:57:50;102787.59;;;1.95;76.78
78407;BME280;67692;51.074;-1.790;2023-02-28T06:00:18;102790.16;;;2.04;76.08
78407;BME280;67692;51.074;-1.790;2023-02-28T06:02:44;102785.03;;;1.93;75.98
78407;BME280;67692;51.074;-1.790;2023-02-28T06:05:13;102777.38;;;1.92;76.13
78407;BME280;67692;51.074;-1.790;2023-02-28T06:07:41;102785.03;;;1.87;76.08
78407;BME280;67692;51.074;-1.790;2023-02-28T06:10:09;102783.31;;;1.83;76.28
78407;BME280;67692;51.074;-1.790;2023-02-28T06:12:36;102785.88;;;1.80;75.94
78407;BME280;67692;51.074;-1.790;2023-02-28T06:15:04;102790.13;;;1.78;76.07
78407;BME280;67692;51.074;-1.790;2023-02-28T06:17:30;102782.44;;;1.70;76.06
78407;BME280;67692;51.074;-1.790;2023-02-28T06:19:57;102779.94;;;1.75;76.06
78407;BME280;67692;51.074;-1.790;2023-02-28T06:22:23;102779.91;;;1.81;75.60
78407;BME280;67692;51.074;-1.790;2023-02-28T06:24:51;102782.47;;;1.79;75.78
78407;BME280;67692;51.074;-1.790;2023-02-28T06:27:19;102782.47;;;1.75;75.74
78407;BME280;67692;51.074;-1.790;2023-02-28T06:29:47;102784.19;;;1.76;75.24
78407;BME280;67692;51.074;-1.790;2023-02-28T06:32:13;102786.72;;;1.73;75.50
78407;BME280;67692;51.074;-1.790;2023-02-28T06:34:40;102784.16;;;1.73;75.61
78407;BME280;67692;51.074;-1.790;2023-02-28T06:37:06;102792.66;;;1.70;75.69
78407;BME280;67692;51.074;-1.790;2023-02-28T06:39:33;102793.53;;;1.68;75.44
78407;BME280;67692;51.074;-1.790;2023-02-28T06:42:01;102795.22;;;1.63;75.51
78407;BME280;67692;51.074;-1.790;2023-02-28T06:44:28;102802.03;;;1.61;75.74
78407;BME280;67692;51.074;-1.790;2023-02-28T06:47:00;102804.59;;;1.61;75.43
78407;BME280;67692;51.074;-1.790;2023-02-28T06:49:27;102804.56;;;1.58;75.24
78407;BME280;67692;51.074;-1.790;2023-02-28T06:51:54;102804.56;;;1.56;75.42
78407;BME280;67692;51.074;-1.790;2023-02-28T06:54:20;102805.41;;;1.49;75.68
78407;BME280;67692;51.074;-1.790;2023-02-28T06:56:47;102813.91;;;1.49;76.18
78407;BME280;67692;51.074;-1.790;2023-02-28T06:59:15;102813.06;;;1.57;75.39
78407;BME280;67692;51.074;-1.790;2023-02-28T07:01:42;102812.22;;;1.58;75.75
78407;BME280;67692;51.074;-1.790;2023-02-28T07:04:09;102810.50;;;1.57;75.89
78407;BME280;67692;51.074;-1.790;2023-02-28T07:06:35;102813.91;;;1.59;76.05
78407;BME280;67692;51.074;-1.790;2023-02-28T07:09:02;102817.31;;;1.56;75.97
78407;BME280;67692;51.074;-1.790;2023-02-28T07:11:30;102819.06;;;1.62;75.50
78407;BME280;67692;51.074;-1.790;2023-02-28T07:13:58;102819.88;;;1.55;76.11
78407;BME280;67692;51.074;-1.790;2023-02-28T07:16:26;102822.47;;;1.61;76.02
78407;BME280;67692;51.074;-1.790;2023-02-28T07:18:52;102824.16;;;1.65;76.10
78407;BME280;67692;51.074;-1.790;2023-02-28T07:21:19;102827.56;;;1.70;75.63
78407;BME280;67692;51.074;-1.790;2023-02-28T07:23:46;102826.72;;;1.69;75.42
78407;BME280;67692;51.074;-1.790;2023-02-28T07:26:14;102825.81;;;1.57;76.29
78407;BME280;67692;51.074;-1.790;2023-02-28T07:28:42;102824.97;;;1.58;75.81
78407;BME280;67692;51.074;-1.790;2023-02-28T07:31:10;102826.69;;;1.59;76.09
78407;BME280;67692;51.074;-1.790;2023-02-28T07:33:38;102824.16;;;1.63;76.18
78407;BME280;67692;51.074;-1.790;2023-02-28T07:36:07;102825.84;;;1.60;75.98
78407;BME280;67692;51.074;-1.790;2023-02-28T07:38:35;102827.56;;;1.67;76.02
78407;BME280;67692;51.074;-1.790;2023-02-28T07:41:02;102832.66;;;1.59;76.39
78407;BME280;67692;51.074;-1.790;2023-02-28T07:43:30;102825.88;;;1.63;75.96
78407;BME280;67692;51.074;-1.790;2023-02-28T07:46:01;102828.41;;;1.73;75.72
78407;BME280;67692;51.074;-1.790;2023-02-28T07:48:28;102839.50;;;1.77;75.92
78407;BME280;67692;51.074;-1.790;2023-02-28T07:50:56;102831.84;;;1.78;76.09
78407;BME280;67692;51.074;-1.790;2023-02-28T07:53:23;102836.13;;;1.81;75.89
78407;BME280;67692;51.074;-1.790;2023-02-28T07:55:50;102833.56;;;1.86;76.22
78407;BME280;67692;51.074;-1.790;2023-02-28T07:58:17;102827.63;;;1.88;76.24
78407;BME280;67692;51.074;-1.790;2023-02-28T08:00:43;102831.03;;;1.93;76.00
78407;BME280;67692;51.074;-1.790;2023-02-28T08:03:11;102834.44;;;1.98;76.31
78407;BME280;67692;51.074;-1.790;2023-02-28T08:05:39;102840.41;;;2.09;76.26
78407;BME280;67692;51.074;-1.790;2023-02-28T08:08:07;102848.94;;;2.13;75.95
78407;BME280;67692;51.074;-1.790;2023-02-28T08:10:36;102837.00;;;2.14;76.08
78407;BME280;67692;51.074;-1.790;2023-02-28T08:13:02;102850.66;;;2.19;76.29
78407;BME280;67692;51.074;-1.790;2023-02-28T08:15:29;102849.78;;;2.23;76.22
78407;BME280;67692;51.074;-1.790;2023-02-28T08:17:56;102837.00;;;2.26;76.28
78407;BME280;67692;51.074;-1.790;2023-02-28T08:20:23;102842.97;;;2.29;76.63
78407;BME280;67692;51.074;-1.790;2023-02-28T08:22:50;102844.69;;;2.35;76.84
78407;BME280;67692;51.074;-1.790;2023-02-28T08:25:18;102854.91;;;2.41;76.73
78407;BME280;67692;51.074;-1.790;2023-02-28T08:27:44;102839.56;;;2.41;76.82
78407;BME280;67692;51.074;-1.790;2023-02-28T08:30:12;102848.09;;;2.49;77.19
78407;BME280;67692;51.074;-1.790;2023-02-28T08:32:40;102847.22;;;2.55;76.70
78407;BME280;67692;51.074;-1.790;2023-02-28T08:35:07;102844.66;;;2.59;76.78
78407;BME280;67692;51.074;-1.790;2023-02-28T08:37:35;102848.06;;;2.64;76.50
78407;BME280;67692;51.074;-1.790;2023-02-28T08:40:02;102843.81;;;2.68;76.38
78407;BME280;67692;51.074;-1.790;2023-02-28T08:42:31;102836.13;;;2.76;76.74
78407;BME280;67692;51.074;-1.790;2023-02-28T08:44:58;102841.25;;;2.77;76.68
78407;BME280;67692;51.074;-1.790;2023-02-28T08:47:25;102837.81;;;2.80;76.46
78407;BME280;67692;51.074;-1.790;2023-02-28T08:49:51;102832.69;;;2.84;76.55
78407;BME280;67692;51.074;-1.790;2023-02-28T08:52:18;102836.94;;;2.85;76.78
78407;BME280;67692;51.074;-1.790;2023-02-28T08:54:44;102833.53;;;2.82;77.08
78407;BME280;67692;51.074;-1.790;2023-02-28T08:57:11;102836.97;;;2.90;77.10
78407;BME280;67692;51.074;-1.790;2023-02-28T08:59:40;102836.09;;;2.94;77.21
78407;BME280;67692;51.074;-1.790;2023-02-28T09:02:08;102841.16;;;3.00;77.31
78407;BME280;67692;51.074;-1.790;2023-02-28T09:04:35;102842.88;;;3.03;77.05
78407;BME280;67692;51.074;-1.790;2023-02-28T09:07:02;102834.31;;;3.13;77.35
78407;BME280;67692;51.074;-1.790;2023-02-28T09:09:28;102844.53;;;3.23;77.63
78407;BME280;67692;51.074;-1.790;2023-02-28T09:11:55;102833.41;;;3.34;78.05
78407;BME280;67692;51.074;-1.790;2023-02-28T09:14:22;102836.72;;;3.45;78.45
78407;BME280;67692;51.074;-1.790;2023-02-28T09:16:50;102834.13;;;3.57;78.10
78407;BME280;67692;51.074;-1.790;2023-02-28T09:19:16;102846.00;;;3.70;77.92
78407;BME280;67692;51.074;-1.790;2023-02-28T09:21:43;102841.72;;;3.77;77.94
78407;BME280;67692;51.074;-1.790;2023-02-28T09:24:10;102832.31;;;3.79;77.47
78407;BME280;67692;51.074;-1.790;2023-02-28T09:26:39;102843.34;;;3.87;77.22
78407;BME280;67692;51.074;-1.790;2023-02-28T09:29:06;102839.06;;;3.92;77.00
78407;BME280;67692;51.074;-1.790;2023-02-28T09:31:32;102826.22;;;3.95;77.08
78407;BME280;67692;51.074;-1.790;2023-02-28T09:34:00;102827.00;;;4.02;77.05
78407;BME280;67692;51.074;-1.790;2023-02-28T09:36:27;102830.31;;;4.16;76.31
78407;BME280;67692;51.074;-1.790;2023-02-28T09:38:55;102826.00;;;4.24;75.51
78407;BME280;67692;51.074;-1.790;2023-02-28T09:41:23;102831.88;;;4.35;75.42
78407;BME280;67692;51.074;-1.790;2023-02-28T09:43:53;102822.38;;;4.43;75.09
78407;BME280;67692;51.074;-1.790;2023-02-28T09:46:28;102820.50;;;4.62;74.43
78407;BME280;67692;51.074;-1.790;2023-02-28T09:48:56;102825.50;;;4.74;74.57
78407;BME280;67692;51.074;-1.790;2023-02-28T09:51:34;102827.19;;;4.78;73.37
78407;BME280;67692;51.074;-1.790;2023-02-28T09:54:04;102823.78;;;4.78;73.42
78407;BME280;67692;51.074;-1.790;2023-02-28T09:56:33;102824.53;;;4.86;73.02
78407;BME280;67692;51.074;-1.790;2023-02-28T09:59:10;102835.78;;;4.74;72.11
78407;BME280;67692;51.074;-1.790;2023-02-28T10:01:43;102827.19;;;4.78;72.40
78407;BME280;67692;51.074;-1.790;2023-02-28T10:04:28;102839.09;;;4.86;72.19
78407;BME280;67692;51.074;-1.790;2023-02-28T10:07:05;102834.81;;;4.86;72.18
78407;BME280;67692;51.074;-1.790;2023-02-28T10:09:46;102835.50;;;5.00;72.26
78407;BME280;67692;51.074;-1.790;2023-02-28T10:12:17;102839.78;;;5.01;71.15
78407;BME280;67692;51.074;-1.790;2023-02-28T10:14:45;102838.88;;;5.07;72.19
78407;BME280;67692;51.074;-1.790;2023-02-28T10:17:15;102829.50;;;5.01;72.29
78407;BME280;67692;51.074;-1.790;2023-02-28T10:19:53;102836.38;;;4.99;71.03
78407;BME280;67692;51.074;-1.790;2023-02-28T10:22:27;102833.88;;;4.93;71.37
78407;BME280;67692;51.074;-1.790;2023-02-28T10:24:55;102830.34;;;5.02;71.75
78407;BME280;67692;51.074;-1.790;2023-02-28T10:27:25;102832.84;;;5.10;72.04
78407;BME280;67692;51.074;-1.790;2023-02-28T10:29:56;102825.94;;;5.15;72.68
78407;BME280;67692;51.074;-1.790;2023-02-28T10:32:26;102828.44;;;5.21;72.48
78407;BME280;67692;51.074;-1.790;2023-02-28T10:34:57;102815.47;;;5.30;71.42
78407;BME280;67692;51.074;-1.790;2023-02-28T10:37:26;102813.97;;;5.14;70.34
78407;BME280;67692;51.074;-1.790;2023-02-28T10:39:53;102824.13;;;5.20;70.91
78407;BME280;67692;51.074;-1.790;2023-02-28T10:42:23;102821.44;;;5.30;71.39
78407;BME280;67692;51.074;-1.790;2023-02-28T10:45:05;102832.53;;;5.35;70.95
78407;BME280;67692;51.074;-1.790;2023-02-28T10:47:33;102816.28;;;5.32;71.57
78407;BME280;67692;51.074;-1.790;2023-02-28T10:50:01;102809.41;;;5.35;70.95
78407;BME280;67692;51.074;-1.790;2023-02-28T10:52:39;102823.84;;;5.44;70.76
78407;BME280;67692;51.074;-1.790;2023-02-28T10:55:20;102812.91;;;5.28;70.52
78407;BME280;67692;51.074;-1.790;2023-02-28T10:57:48;102812.81;;;5.37;71.55
78407;BME280;67692;51.074;-1.790;2023-02-28T11:00:18;102818.53;;;5.56;70.46
78407;BME280;67692;51.074;-1.790;2023-02-28T11:02:47;102822.91;;;5.51;70.63
78407;BME280;67692;51.074;-1.790;2023-02-28T11:05:29;102816.22;;;5.38;70.58
78407;BME280;67692;51.074;-1.790;2023-02-28T11:08:04;102813.59;;;5.43;70.80
78407;BME280;67692;51.074;-1.790;2023-02-28T11:10:32;102816.97;;;5.45;70.78
78407;BME280;67692;51.074;-1.790;2023-02-28T11:13:01;102810.09;;;5.50;70.76
78407;BME280;67692;51.074;-1.790;2023-02-28T11:15:30;102816.91;;;5.51;70.29
78407;BME280;67692;51.074;-1.790;2023-02-28T11:17:59;102815.94;;;5.58;69.89
78407;BME280;67692;51.074;-1.790;2023-02-28T11:20:28;102801.53;;;5.46;69.82
78407;BME280;67692;51.074;-1.790;2023-02-28T11:22:56;102803.25;;;5.47;69.21
78407;BME280;67692;51.074;-1.790;2023-02-28T11:25:26;102801.47;;;5.52;69.81
78407;BME280;67692;51.074;-1.790;2023-02-28T11:27:57;102798.84;;;5.57;69.30
78407;BME280;67692;51.074;-1.790;2023-02-28T11:30:27;102798.75;;;5.61;69.62
78407;BME280;67692;51.074;-1.790;2023-02-28T11:32:55;102804.69;;;5.66;69.68
78407;BME280;67692;51.074;-1.790;2023-02-28T11:35:24;102798.56;;;5.75;69.61
78407;BME280;67692;51.074;-1.790;2023-02-28T11:37:52;102808.00;;;5.75;69.86
78407;BME280;67692;51.074;-1.790;2023-02-28T11:40:28;102801.97;;;5.79;68.55
78407;BME280;67692;51.074;-1.790;2023-02-28T11:43:07;102791.47;;;5.94;68.35
78407;BME280;67692;51.074;-1.790;2023-02-28T11:45:45;102792.38;;;5.87;69.00
78407;BME280;67692;51.074;-1.790;2023-02-28T11:48:20;102791.44;;;5.95;68.19
78407;BME280;67692;51.074;-1.790;2023-02-28T11:50:57;102788.88;;;5.92;68.64
78407;BME280;67692;51.074;-1.790;2023-02-28T11:53:46;102784.69;;;5.87;69.31
78407;BME280;67692;51.074;-1.790;2023-02-28T11:56:23;102783.66;;;5.99;68.96
78407;BME280;67692;51.074;-1.790;2023-02-28T11:58:53;102776.88;;;5.94;69.08
78407;BME280;67692;51.074;-1.790;2023-02-28T12:01:31;102776.88;;;5.93;69.72
78407;BME280;67692;51.074;-1.790;2023-02-28T12:04:16;102770.69;;;6.05;69.77
78407;BME280;67692;51.074;-1.790;2023-02-28T12:06:47;102766.47;;;6.02;69.00
78407;BME280;67692;51.074;-1.790;2023-02-28T12:09:42;102771.75;;;5.93;68.31
78407;BME280;67692;51.074;-1.790;2023-02-28T12:12:21;102751.03;;;6.02;68.86
78407;BME280;67692;51.074;-1.790;2023-02-28T12:15:02;102760.59;;;5.95;68.47
78407;BME280;67692;51.074;-1.790;2023-02-28T12:17:42;102753.63;;;6.01;68.67
78407;BME280;67692;51.074;-1.790;2023-02-28T12:20:17;102746.75;;;6.03;68.78
78407;BME280;67692;51.074;-1.790;2023-02-28T12:22:50;102750.13;;;6.05;68.70
78407;BME280;67692;51.074;-1.790;2023-02-28T12:28:25;102721.66;;;6.15;68.87
78407;BME280;67692;51.074;-1.790;2023-02-28T12:30:56;102716.53;;;6.14;69.27
78407;BME280;67692;51.074;-1.790;2023-02-28T12:33:31;102716.41;;;6.21;68.63
78407;BME280;67692;51.074;-1.790;2023-02-28T12:36:00;102726.53;;;6.31;69.06
78407;BME280;67692;51.074;-1.790;2023-02-28T12:38:35;102721.31;;;6.34;68.58
78407;BME280;67692;51.074;-1.790;2023-02-28T12:41:05;102721.38;;;6.31;68.11
78407;BME280;67692;51.074;-1.790;2023-02-28T12:43:37;102721.53;;;6.23;67.76
78407;BME280;67692;51.074;-1.790;2023-02-28T12:46:09;102728.28;;;6.29;68.28
78407;BME280;67692;51.074;-1.790;2023-02-28T12:48:40;102720.72;;;6.19;68.62
78407;BME280;67692;51.074;-1.790;2023-02-28T12:51:09;102709.44;;;6.28;68.18
78407;BME280;67692;51.074;-1.790;2023-02-28T12:53:47;102718.88;;;6.28;68.31
78407;BME280;67692;51.074;-1.790;2023-02-28T12:56:21;102712.03;;;6.26;69.11
78407;BME280;67692;51.074;-1.790;2023-02-28T12:58:57;102709.50;;;6.25;69.69
78407;BME280;67692;51.074;-1.790;2023-02-28T13:01:42;102704.13;;;6.36;68.81
78407;BME280;67692;51.074;-1.790;2023-02-28T13:04:47;102696.50;;;6.31;69.29
78407;BME280;67692;51.074;-1.790;2023-02-28T13:07:49;102681.91;;;6.32;69.24
78407;BME280;67692;51.074;-1.790;2023-02-28T13:10:21;102686.22;;;6.31;68.36
78407;BME280;67692;51.074;-1.790;2023-02-28T13:12:48;102679.34;;;6.32;68.89